createdAt,value
2022-10-31T00:01:39.384Z,14.20
2022-10-31T00:04:07.158Z,14.20
2022-10-31T00:06:33.976Z,14.20
2022-10-31T00:09:04.773Z,14.20
2022-10-31T00:11:32.213Z,14.20
2022-10-31T00:14:00.581Z,14.20
2022-10-31T00:16:28.991Z,14.20
2022-10-31T00:19:02.224Z,14.10
2022-10-31T00:21:31.052Z,14.10
2022-10-31T00:24:00.022Z,14.10
2022-10-31T00:26:31.903Z,14.10
2022-10-31T00:29:00.230Z,14.00
2022-10-31T00:31:27.079Z,14.00
2022-10-31T00:33:53.908Z,14.00
2022-10-31T00:36:21.697Z,14.00
2022-10-31T00:38:49.349Z,14.00
2022-10-31T00:41:18.684Z,13.90
2022-10-31T00:43:45.954Z,13.90
2022-10-31T00:46:13.745Z,13.90
2022-10-31T00:48:40.794Z,13.90
2022-10-31T00:51:08.346Z,13.90
2022-10-31T00:53:35.666Z,13.90
2022-10-31T00:56:03.104Z,13.90
2022-10-31T00:58:29.971Z,13.90
2022-10-31T01:00:57.001Z,13.90
2022-10-31T01:03:31.726Z,13.90
2022-10-31T01:06:01.021Z,13.90
2022-10-31T01:08:28.990Z,13.90
2022-10-31T01:11:16.605Z,13.90
2022-10-31T01:13:44.880Z,13.80
2022-10-31T01:16:15.828Z,13.80
2022-10-31T01:18:42.610Z,13.80
2022-10-31T01:21:13.910Z,13.90
2022-10-31T01:23:41.580Z,13.80
2022-10-31T01:26:16.659Z,13.80
2022-10-31T01:28:59.132Z,13.80
2022-10-31T01:31:30.902Z,13.70
2022-10-31T01:33:58.995Z,13.70
2022-10-31T01:36:33.560Z,13.70
2022-10-31T01:39:16.029Z,13.60
2022-10-31T01:41:51.069Z,13.60
2022-10-31T01:44:17.778Z,13.60
2022-10-31T01:46:55.336Z,13.60
2022-10-31T01:49:34.729Z,13.60
2022-10-31T01:52:15.716Z,13.60
2022-10-31T01:54:49.589Z,13.60
2022-10-31T01:57:19.364Z,13.70
2022-10-31T02:00:00.117Z,13.50
2022-10-31T02:02:31.220Z,13.50
2022-10-31T02:05:02.269Z,13.50
2022-10-31T02:07:37.540Z,13.50
2022-10-31T02:10:05.084Z,13.50
2022-10-31T02:12:34.046Z,13.40
2022-10-31T02:15:01.351Z,13.40
2022-10-31T02:17:30.670Z,13.40
2022-10-31T02:20:12.285Z,13.30
2022-10-31T02:22:57.688Z,13.30
2022-10-31T02:26:05.821Z,13.30
2022-10-31T02:29:12.710Z,13.30
2022-10-31T02:32:14.590Z,13.30
2022-10-31T02:34:56.095Z,13.30
2022-10-31T02:37:50.750Z,13.20
2022-10-31T02:40:27.795Z,13.20
2022-10-31T02:43:22.872Z,13.20
2022-10-31T02:45:59.660Z,13.20
2022-10-31T02:48:32.090Z,13.20
2022-10-31T02:51:03.267Z,13.10
2022-10-31T02:53:38.146Z,13.10
2022-10-31T02:56:19.337Z,13.10
2022-10-31T02:59:02.589Z,13.00
2022-10-31T03:01:48.538Z,13.10
2022-10-31T03:04:41.916Z,13.00
2022-10-31T03:07:40.812Z,13.00
2022-10-31T03:10:47.004Z,13.00
2022-10-31T03:13:26.689Z,12.90
2022-10-31T03:16:10.233Z,12.90
2022-10-31T03:19:09.913Z,12.90
2022-10-31T03:21:56.667Z,12.80
2022-10-31T03:24:31.514Z,12.80
2022-10-31T03:27:01.236Z,12.80
2022-10-31T03:29:33.096Z,12.80
2022-10-31T03:32:07.420Z,12.80
2022-10-31T03:34:37.951Z,12.70
2022-10-31T03:37:10.099Z,12.70
2022-10-31T03:39:41.018Z,12.60
2022-10-31T03:42:12.376Z,12.70
2022-10-31T03:44:45.547Z,12.70
2022-10-31T03:47:13.261Z,12.70
2022-10-31T03:49:40.701Z,12.60
2022-10-31T03:52:37.149Z,12.60
2022-10-31T03:55:17.388Z,12.60
2022-10-31T03:58:01.398Z,12.60
2022-10-31T04:00:30.934Z,12.50
2022-10-31T04:03:04.952Z,12.50
2022-10-31T04:05:33.117Z,12.50
2022-10-31T04:08:02.667Z,12.40
2022-10-31T04:10:33.199Z,12.50
2022-10-31T04:13:08.366Z,12.40
2022-10-31T04:15:39.277Z,12.50
2022-10-31T04:18:07.035Z,12.40
2022-10-31T04:20:40.478Z,12.40
2022-10-31T04:23:25.131Z,12.40
2022-10-31T04:25:52.209Z,12.30
2022-10-31T04:30:52.229Z,12.30
2022-10-31T04:33:19.680Z,12.20
2022-10-31T04:35:47.059Z,12.20
2022-10-31T04:38:14.011Z,12.20
2022-10-31T04:40:40.990Z,12.20
2022-10-31T04:43:07.973Z,12.20
2022-10-31T04:45:34.999Z,12.10
2022-10-31T04:48:02.312Z,12.10
2022-10-31T04:50:29.357Z,12.10
2022-10-31T04:52:56.181Z,12.10
2022-10-31T04:55:22.956Z,12.10
2022-10-31T04:57:51.727Z,12.10
2022-10-31T05:00:22.177Z,12.10
2022-10-31T05:02:51.641Z,12.00
2022-10-31T05:05:22.829Z,12.00
2022-10-31T05:07:51.038Z,12.00
2022-10-31T05:10:26.452Z,12.00
2022-10-31T05:13:00.270Z,12.00
2022-10-31T05:15:29.177Z,11.90
2022-10-31T05:17:57.579Z,11.90
2022-10-31T05:20:30.239Z,11.90
2022-10-31T05:22:58.637Z,11.80
2022-10-31T05:25:28.365Z,11.90
2022-10-31T05:27:56.848Z,11.90
2022-10-31T05:30:30.859Z,11.90
2022-10-31T05:32:59.065Z,11.90
2022-10-31T05:35:30.502Z,11.80
2022-10-31T05:37:58.708Z,11.90
2022-10-31T05:40:27.469Z,11.80
2022-10-31T05:42:57.127Z,11.80
2022-10-31T05:45:24.351Z,11.80
2022-10-31T05:47:57.483Z,11.80
2022-10-31T05:50:27.364Z,11.80
2022-10-31T05:53:04.110Z,11.80
2022-10-31T05:55:31.935Z,11.80
2022-10-31T05:57:59.548Z,11.80
2022-10-31T06:00:28.047Z,11.80
2022-10-31T06:05:36.463Z,11.80
2022-10-31T06:08:04.060Z,11.80
2022-10-31T06:10:31.084Z,11.80
2022-10-31T06:12:58.023Z,11.80
2022-10-31T06:15:25.069Z,11.80
2022-10-31T06:18:04.410Z,11.80
2022-10-31T06:20:32.615Z,11.80
2022-10-31T06:23:00.215Z,11.80
2022-10-31T06:25:27.581Z,11.80
2022-10-31T06:27:55.210Z,11.80
2022-10-31T06:30:22.509Z,11.80
2022-10-31T06:32:50.780Z,11.90
2022-10-31T06:35:18.127Z,11.90
2022-10-31T06:37:53.642Z,11.90
2022-10-31T06:40:20.530Z,12.00
2022-10-31T06:42:47.356Z,12.00
2022-10-31T06:45:14.542Z,12.10
2022-10-31T06:47:56.730Z,12.10
2022-10-31T06:50:28.242Z,12.20
2022-10-31T06:52:59.687Z,12.20
2022-10-31T06:55:27.928Z,12.30
2022-10-31T06:58:03.085Z,12.30
2022-10-31T07:00:31.934Z,12.40
2022-10-31T07:03:08.792Z,12.50
2022-10-31T07:05:35.649Z,12.50
2022-10-31T07:08:09.768Z,12.60
2022-10-31T07:10:40.565Z,12.60
2022-10-31T07:13:13.299Z,12.70
2022-10-31T07:15:42.609Z,12.80
2022-10-31T07:18:12.827Z,12.80
2022-10-31T07:20:40.067Z,13.00
2022-10-31T07:23:07.171Z,13.00
2022-10-31T07:25:34.056Z,13.20
2022-10-31T07:28:01.123Z,13.10
2022-10-31T07:30:28.293Z,13.20
2022-10-31T07:32:56.456Z,13.40
2022-10-31T07:35:29.110Z,13.40
2022-10-31T07:37:57.368Z,13.60
2022-10-31T07:40:25.554Z,13.70
2022-10-31T07:42:54.450Z,13.90
2022-10-31T07:45:22.179Z,14.10
2022-10-31T07:47:53.808Z,14.40
2022-10-31T07:50:30.434Z,14.90
2022-10-31T07:53:00.502Z,15.40
2022-10-31T07:55:28.481Z,16.00
2022-10-31T07:58:08.427Z,16.70
2022-10-31T08:00:37.724Z,17.30
2022-10-31T08:03:14.188Z,18.00
2022-10-31T08:05:42.206Z,18.60
2022-10-31T08:08:09.661Z,19.20
2022-10-31T08:10:37.209Z,19.80
2022-10-31T08:13:13.348Z,20.30
2022-10-31T08:15:42.573Z,20.90
2022-10-31T08:18:15.723Z,21.40
2022-10-31T08:20:44.146Z,21.90
2022-10-31T08:23:13.652Z,22.50
2022-10-31T08:25:41.286Z,23.00
2022-10-31T08:28:11.748Z,23.50
2022-10-31T08:30:39.771Z,23.90
2022-10-31T08:33:16.658Z,24.40
2022-10-31T08:35:43.951Z,24.80
2022-10-31T08:38:13.558Z,25.20
2022-10-31T08:40:40.979Z,25.60
2022-10-31T08:43:14.915Z,26.00
2022-10-31T08:45:43.225Z,26.40
2022-10-31T08:48:16.220Z,26.70
2022-10-31T08:50:45.057Z,27.10
2022-10-31T08:53:20.201Z,27.40
2022-10-31T08:55:47.864Z,27.70
2022-10-31T08:58:21.586Z,28.00
2022-10-31T09:00:52.203Z,28.30
2022-10-31T09:03:26.285Z,28.50
2022-10-31T09:06:00.465Z,28.50
2022-10-31T09:08:30.423Z,28.70
2022-10-31T09:10:58.693Z,28.80
2022-10-31T09:13:28.157Z,28.90
2022-10-31T09:15:57.729Z,28.90
2022-10-31T09:18:28.854Z,28.80
2022-10-31T09:20:59.032Z,28.70
2022-10-31T09:23:25.924Z,28.50
2022-10-31T09:25:54.216Z,28.30
2022-10-31T09:28:24.475Z,28.10
2022-10-31T09:30:54.205Z,27.90
2022-10-31T09:33:22.184Z,27.70
2022-10-31T09:35:49.331Z,27.60
2022-10-31T09:38:20.414Z,27.40
2022-10-31T09:41:41.274Z,27.10
2022-10-31T09:44:40.576Z,26.90
2022-10-31T09:47:44.915Z,26.70
2022-10-31T09:50:22.267Z,26.50
2022-10-31T09:53:11.181Z,26.40
2022-10-31T09:55:44.997Z,26.30
2022-10-31T09:58:21.193Z,26.30
2022-10-31T10:00:49.357Z,26.30
2022-10-31T10:03:41.329Z,26.20
2022-10-31T10:06:24.269Z,26.10
2022-10-31T10:08:51.410Z,26.10
2022-10-31T10:12:14.009Z,26.00
2022-10-31T10:15:31.902Z,25.90
2022-10-31T10:18:19.401Z,25.80
2022-10-31T10:21:14.533Z,25.70
2022-10-31T10:24:31.792Z,25.50
2022-10-31T10:27:59.453Z,25.50
2022-10-31T10:30:45.707Z,25.40
2022-10-31T10:33:23.760Z,25.20
2022-10-31T10:36:05.233Z,25.10
2022-10-31T10:38:57.957Z,25.00
2022-10-31T10:41:34.307Z,24.80
2022-10-31T10:44:02.231Z,24.70
2022-10-31T10:47:07.894Z,24.60
2022-10-31T10:49:52.031Z,24.40
2022-10-31T10:52:50.169Z,24.30
2022-10-31T10:55:40.629Z,24.20
2022-10-31T10:58:12.040Z,24.00
2022-10-31T11:00:47.922Z,23.90
2022-10-31T11:03:16.544Z,23.80
2022-10-31T11:05:55.404Z,23.70
2022-10-31T11:08:34.585Z,23.50
2022-10-31T11:11:29.130Z,23.40
2022-10-31T11:14:21.470Z,23.40
2022-10-31T11:16:55.607Z,23.30
2022-10-31T11:19:28.364Z,23.20
2022-10-31T11:22:07.240Z,23.20
2022-10-31T11:24:41.548Z,23.10
2022-10-31T11:27:21.147Z,23.10
2022-10-31T11:29:48.277Z,23.10
2022-10-31T11:32:23.352Z,23.10
2022-10-31T11:34:58.184Z,23.10
2022-10-31T11:37:36.464Z,23.10
2022-10-31T11:40:07.770Z,23.10
2022-10-31T11:42:42.400Z,23.10
2022-10-31T11:45:24.694Z,23.30
2022-10-31T11:47:59.551Z,23.30
2022-10-31T11:50:39.536Z,23.30
2022-10-31T11:53:27.406Z,23.50
2022-10-31T11:56:21.328Z,23.50
2022-10-31T11:59:06.586Z,23.50
2022-10-31T12:01:34.487Z,23.50
2022-10-31T12:04:10.098Z,23.50
2022-10-31T12:06:39.610Z,23.60
2022-10-31T12:09:23.857Z,23.60
2022-10-31T12:12:14.525Z,23.70
2022-10-31T12:14:56.477Z,23.70
2022-10-31T12:17:34.795Z,23.80
2022-10-31T12:20:26.776Z,23.80
2022-10-31T12:23:21.901Z,23.80
2022-10-31T12:26:15.543Z,23.80
2022-10-31T12:29:07.257Z,23.70
2022-10-31T12:31:52.066Z,23.70
2022-10-31T12:34:49.842Z,23.70
2022-10-31T12:37:40.398Z,23.70
2022-10-31T12:40:32.017Z,23.70
2022-10-31T12:43:31.952Z,23.70
2022-10-31T12:46:01.571Z,23.70
2022-10-31T12:48:47.237Z,23.70
2022-10-31T12:51:25.189Z,23.60
2022-10-31T12:54:45.477Z,23.70
2022-10-31T12:57:43.424Z,23.70
2022-10-31T13:00:22.068Z,23.70
2022-10-31T13:03:21.813Z,23.60
2022-10-31T13:05:57.688Z,23.70
2022-10-31T13:08:46.563Z,23.70
2022-10-31T13:11:24.187Z,23.70
2022-10-31T13:14:17.629Z,23.70
2022-10-31T13:16:49.091Z,23.80
2022-10-31T13:19:38.187Z,23.80
2022-10-31T13:22:30.370Z,23.80
2022-10-31T13:25:04.551Z,23.90
2022-10-31T13:27:54.037Z,23.90
2022-10-31T13:30:24.070Z,23.90
2022-10-31T13:33:10.392Z,23.90
2022-10-31T13:35:59.504Z,24.00
2022-10-31T13:38:57.622Z,24.00
2022-10-31T13:41:49.468Z,24.00
2022-10-31T13:44:28.029Z,24.00
2022-10-31T13:46:58.227Z,24.00
2022-10-31T13:49:40.319Z,24.00
2022-10-31T13:52:13.306Z,23.90
2022-10-31T13:54:56.572Z,23.80
2022-10-31T13:57:48.979Z,23.80
2022-10-31T14:00:21.562Z,23.70
2022-10-31T14:02:58.779Z,23.60
2022-10-31T14:05:35.515Z,23.60
2022-10-31T14:08:16.265Z,23.50
2022-10-31T14:10:54.023Z,23.50
2022-10-31T14:13:42.161Z,23.40
2022-10-31T14:16:33.321Z,23.40
2022-10-31T14:19:19.309Z,23.40
2022-10-31T14:21:51.935Z,23.30
2022-10-31T14:24:24.872Z,23.30
2022-10-31T14:27:25.016Z,23.30
2022-10-31T14:29:51.932Z,23.30
2022-10-31T14:32:24.205Z,23.40
2022-10-31T14:34:50.913Z,23.50
2022-10-31T14:38:19.506Z,23.50
2022-10-31T14:41:40.621Z,23.50
2022-10-31T14:44:48.508Z,23.50
2022-10-31T14:47:32.416Z,23.50
2022-10-31T14:50:34.720Z,23.40
2022-10-31T14:53:07.279Z,23.30
2022-10-31T14:55:34.466Z,23.30
2022-10-31T14:58:08.332Z,23.20
2022-10-31T15:00:37.190Z,23.20
2022-10-31T15:03:26.018Z,23.10
2022-10-31T15:05:57.677Z,23.10
2022-10-31T15:08:52.642Z,23.10
2022-10-31T15:11:28.599Z,23.10
2022-10-31T15:13:58.610Z,23.00
2022-10-31T15:16:36.633Z,23.00
2022-10-31T15:19:13.025Z,22.90
2022-10-31T15:21:46.690Z,22.80
2022-10-31T15:24:19.346Z,22.80
2022-10-31T15:26:52.713Z,22.60
2022-10-31T15:29:25.642Z,22.70
2022-10-31T15:32:03.701Z,22.60
2022-10-31T15:34:44.532Z,22.50
2022-10-31T15:37:13.399Z,22.50
2022-10-31T15:39:40.914Z,22.40
2022-10-31T15:42:36.793Z,22.30
2022-10-31T15:45:28.078Z,22.20
2022-10-31T15:48:17.740Z,22.10
2022-10-31T15:50:57.529Z,22.00
2022-10-31T15:53:43.459Z,21.90
2022-10-31T15:56:20.457Z,21.80
2022-10-31T15:58:51.481Z,21.70
2022-10-31T16:01:29.597Z,21.60
2022-10-31T16:04:12.552Z,21.50
2022-10-31T16:06:40.172Z,21.40
2022-10-31T16:09:24.159Z,21.30
2022-10-31T16:11:51.869Z,21.20
2022-10-31T16:14:25.881Z,21.00
2022-10-31T16:16:57.612Z,20.90
2022-10-31T16:19:34.761Z,20.80
2022-10-31T16:22:36.670Z,20.60
2022-10-31T16:25:16.765Z,20.50
2022-10-31T16:27:54.462Z,20.30
2022-10-31T16:30:48.511Z,20.20
2022-10-31T16:33:37.012Z,20.10
2022-10-31T16:36:36.613Z,19.90
2022-10-31T16:39:04.357Z,19.80
2022-10-31T16:41:33.464Z,19.70
2022-10-31T16:44:05.244Z,19.60
2022-10-31T16:46:32.054Z,19.40
2022-10-31T16:48:58.823Z,19.30
2022-10-31T16:51:25.641Z,19.20
2022-10-31T16:53:54.345Z,19.10
2022-10-31T16:56:34.306Z,19.00
2022-10-31T16:59:04.838Z,18.90
2022-10-31T17:01:32.745Z,18.80
2022-10-31T17:03:59.811Z,18.70
2022-10-31T17:06:28.418Z,18.60
2022-10-31T17:08:55.593Z,18.50
2022-10-31T17:11:26.082Z,18.40
2022-10-31T17:13:54.885Z,18.30
2022-10-31T17:16:21.749Z,18.20
2022-10-31T17:18:48.734Z,18.20
2022-10-31T17:21:24.051Z,18.10
2022-10-31T17:23:51.368Z,18.00
2022-10-31T17:26:18.507Z,17.90
2022-10-31T17:28:45.576Z,17.80
2022-10-31T17:31:27.952Z,17.80
2022-10-31T17:34:02.661Z,17.70
2022-10-31T17:36:35.228Z,17.60
2022-10-31T17:39:03.477Z,17.50
2022-10-31T17:41:30.317Z,17.40
2022-10-31T17:43:58.262Z,17.40
2022-10-31T17:46:25.677Z,17.30
2022-10-31T17:48:52.592Z,17.20
2022-10-31T17:51:19.393Z,17.20
2022-10-31T17:53:46.260Z,17.10
2022-10-31T17:56:13.226Z,17.00
2022-10-31T17:58:40.225Z,17.00
2022-10-31T18:01:15.087Z,16.90
2022-10-31T18:03:57.597Z,16.80
2022-10-31T18:06:24.408Z,16.80
2022-10-31T18:08:51.253Z,16.70
2022-10-31T18:11:21.630Z,16.60
2022-10-31T18:13:54.977Z,16.60
2022-10-31T18:16:22.075Z,16.50
2022-10-31T18:19:00.730Z,16.50
2022-10-31T18:21:28.542Z,16.40
2022-10-31T18:23:56.960Z,16.40
2022-10-31T18:26:27.619Z,16.30
2022-10-31T18:28:54.914Z,16.30
2022-10-31T18:31:21.991Z,16.20
2022-10-31T18:33:48.808Z,16.20
2022-10-31T18:36:15.630Z,16.20
2022-10-31T18:38:46.654Z,16.10
2022-10-31T18:41:15.064Z,16.00
2022-10-31T18:43:42.624Z,15.90
2022-10-31T18:46:15.216Z,15.90
2022-10-31T18:48:44.489Z,15.90
2022-10-31T18:51:14.730Z,15.80
2022-10-31T18:53:41.596Z,15.70
2022-10-31T18:56:11.284Z,15.70
2022-10-31T18:58:38.301Z,15.70
2022-10-31T19:01:11.338Z,15.70
2022-10-31T19:03:39.299Z,15.60
2022-10-31T19:06:07.776Z,15.50
2022-10-31T19:08:35.997Z,15.50
2022-10-31T19:11:12.908Z,15.40
2022-10-31T19:13:41.661Z,15.40
2022-10-31T19:16:12.749Z,15.30
2022-10-31T19:18:41.876Z,15.30
2022-10-31T19:21:15.058Z,15.20
2022-10-31T19:23:42.950Z,15.20
2022-10-31T19:26:10.361Z,15.20
2022-10-31T19:28:39.779Z,15.10
2022-10-31T19:31:07.782Z,15.10
2022-10-31T19:33:36.348Z,15.00
2022-10-31T19:36:13.359Z,15.00
2022-10-31T19:38:45.121Z,15.00
2022-10-31T19:41:28.359Z,14.90
2022-10-31T19:43:58.474Z,14.90
2022-10-31T19:46:51.836Z,14.80
2022-10-31T19:49:12.386Z,14.80
2022-10-31T19:51:39.498Z,14.80
2022-10-31T19:54:07.746Z,14.70
2022-10-31T19:56:34.728Z,14.70
2022-10-31T19:59:03.147Z,14.60
2022-10-31T20:01:30.934Z,14.60
2022-10-31T20:03:57.924Z,14.60
2022-10-31T20:06:30.574Z,14.50
2022-10-31T20:08:57.885Z,14.50
2022-10-31T20:11:27.350Z,14.50
2022-10-31T20:13:59.058Z,14.50
2022-10-31T20:16:27.835Z,14.40
2022-10-31T20:18:55.409Z,14.40
2022-10-31T20:21:26.551Z,14.40
2022-10-31T20:23:59.950Z,14.30
2022-10-31T20:26:28.442Z,14.30
2022-10-31T20:29:00.485Z,14.30
2022-10-31T20:31:32.609Z,14.20
2022-10-31T20:33:59.501Z,14.30
2022-10-31T20:36:28.685Z,14.20
2022-10-31T20:38:55.643Z,14.20
2022-10-31T20:41:22.456Z,14.20
2022-10-31T20:43:49.404Z,14.10
2022-10-31T20:46:24.565Z,14.10
2022-10-31T20:48:52.565Z,14.10
2022-10-31T20:51:23.565Z,14.10
2022-10-31T20:53:53.260Z,14.00
2022-10-31T20:56:23.953Z,14.00
2022-10-31T20:58:51.389Z,14.00
2022-10-31T21:01:25.178Z,13.90
2022-10-31T21:03:53.216Z,13.90
2022-10-31T21:06:23.068Z,13.90
2022-10-31T21:08:51.308Z,13.90
2022-10-31T21:11:22.005Z,13.90
2022-10-31T21:13:49.967Z,13.90
2022-10-31T21:16:27.482Z,13.90
2022-10-31T21:18:55.109Z,13.90
2022-10-31T21:21:28.985Z,13.80
2022-10-31T21:24:03.001Z,13.80
2022-10-31T21:26:34.388Z,13.80
2022-10-31T21:29:03.790Z,13.70
2022-10-31T21:31:31.390Z,13.70
2022-10-31T21:33:58.454Z,13.70
2022-10-31T21:36:26.217Z,13.70
2022-10-31T21:38:55.257Z,13.70
2022-10-31T21:41:24.409Z,13.70
2022-10-31T21:43:55.821Z,13.60
2022-10-31T21:46:26.533Z,13.60
2022-10-31T21:48:54.768Z,13.60
2022-10-31T21:51:25.937Z,13.60
2022-10-31T21:54:12.266Z,13.60
2022-10-31T21:56:39.950Z,13.60
2022-10-31T21:59:07.357Z,13.60
2022-10-31T22:01:35.267Z,13.60
2022-10-31T22:04:03.113Z,13.60
2022-10-31T22:06:30.420Z,13.60
2022-10-31T22:09:03.279Z,13.50
2022-10-31T22:11:30.207Z,13.50
2022-10-31T22:14:00.356Z,13.50
2022-10-31T22:16:29.683Z,13.50
2022-10-31T22:19:00.400Z,13.40
2022-10-31T22:21:28.604Z,13.50
2022-10-31T22:24:03.317Z,13.40
2022-10-31T22:26:32.292Z,13.40
2022-10-31T22:29:02.115Z,13.40
2022-10-31T22:31:31.653Z,13.30
2022-10-31T22:33:59.180Z,13.30
2022-10-31T22:36:29.429Z,13.30
2022-10-31T22:38:59.889Z,13.30
2022-10-31T22:41:30.507Z,13.30
2022-10-31T22:43:58.274Z,13.20
2022-10-31T22:46:28.886Z,13.20
2022-10-31T22:48:59.897Z,13.20
2022-10-31T22:51:39.667Z,13.20
2022-10-31T22:54:14.495Z,13.20
2022-10-31T22:56:41.304Z,13.20
2022-10-31T22:59:14.761Z,13.10
2022-10-31T23:01:44.891Z,13.20
2022-10-31T23:04:13.293Z,13.10
2022-10-31T23:06:40.465Z,13.10
2022-10-31T23:09:08.494Z,13.10
2022-10-31T23:11:39.927Z,13.20
2022-10-31T23:14:14.003Z,13.10
2022-10-31T23:16:54.287Z,13.00
2022-10-31T23:19:28.194Z,13.00
2022-10-31T23:22:01.779Z,13.10
2022-10-31T23:24:39.873Z,13.00
2022-10-31T23:27:14.179Z,13.10
2022-10-31T23:29:52.726Z,13.10
2022-10-31T23:32:29.343Z,13.10
2022-10-31T23:35:08.816Z,13.10
2022-10-31T23:37:38.460Z,13.10
2022-10-31T23:40:08.701Z,13.10
2022-10-31T23:42:35.563Z,13.10
2022-10-31T23:45:02.739Z,13.20
2022-10-31T23:47:29.629Z,13.10
2022-10-31T23:49:56.412Z,13.00
2022-10-31T23:52:23.203Z,13.00
2022-10-31T23:54:50.029Z,13.10
2022-10-31T23:57:17.723Z,13.00
2022-10-31T23:59:44.911Z,13.10
